Time;durP1;ratioP1;P1;durP2;ratioP2;P2;SDS_P1;SDS_P2;PMS_P1;PMS_P2;Temp;Humidity;BMP_temperature;BMP_pressure;BME280_temperature;BME280_humidity;BME280_pressure;Samples;Min_cycle;Max_cycle;Signal;HPM_P1;HPM_P2
2022/02/12 00:02:20;;;;;;;10.40;4.57;;;;;;;-1.52;58.28;94086.88;2048926;70;20150;-71
2022/02/12 00:04:46;;;;;;;10.60;4.60;;;;;;;-1.49;58.94;94068.56;2049239;70;20612;-72
2022/02/12 00:07:11;;;;;;;7.10;3.95;;;;;;;-1.58;57.96;94073.06;2049597;70;20602;-72
2022/02/12 00:09:37;;;;;;;7.97;4.40;;;;;;;-1.69;58.77;94066.75;2049337;70;20186;-76
2022/02/12 00:12:04;;;;;;;9.10;3.55;;;;;;;-1.76;58.34;94068.00;2048187;70;20601;-73
2022/02/12 00:14:30;;;;;;;10.15;3.97;;;;;;;-1.87;59.33;94054.16;2048430;70;20194;-73
2022/02/12 00:16:56;;;;;;;7.28;3.92;;;;;;;-1.91;59.82;94054.41;2048004;70;20225;-75
2022/02/12 00:19:22;;;;;;;7.30;3.47;;;;;;;-1.81;59.53;94063.97;2048264;70;20139;-71
2022/02/12 00:21:48;;;;;;;6.57;3.30;;;;;;;-1.98;59.39;94052.09;2048284;70;20190;-69
2022/02/12 00:24:13;;;;;;;11.23;5.60;;;;;;;-1.93;60.14;94056.13;2048196;70;20150;-71
2022/02/12 00:26:39;;;;;;;16.35;7.40;;;;;;;-1.90;60.17;94052.38;2048209;70;20147;-70
2022/02/12 00:29:04;;;;;;;12.50;5.88;;;;;;;-1.98;59.93;94046.59;2047906;70;20513;-69
2022/02/12 00:31:30;;;;;;;11.00;5.47;;;;;;;-2.08;59.66;94056.34;2048066;70;20150;-74
2022/02/12 00:33:56;;;;;;;9.07;4.72;;;;;;;-1.91;59.58;94059.91;2047846;70;20598;-74
2022/02/12 00:36:21;;;;;;;6.35;3.40;;;;;;;-1.81;58.74;94058.44;2048247;70;20145;-75
2022/02/12 00:38:47;;;;;;;6.22;2.50;;;;;;;-1.63;57.48;94062.00;2048079;70;20182;-69
2022/02/12 00:41:12;;;;;;;4.35;2.20;;;;;;;-1.61;56.39;94051.94;2048119;70;20208;-73
2022/02/12 00:43:38;;;;;;;2.90;1.33;;;;;;;-1.57;52.29;94046.19;2048372;70;20205;-73
2022/02/12 00:46:04;;;;;;;5.43;1.45;;;;;;;-1.31;52.95;94048.75;2048020;70;20150;-77
2022/02/12 00:48:30;;;;;;;2.08;1.30;;;;;;;-1.33;51.78;94054.78;2047969;70;20149;-76
2022/02/12 00:50:59;;;;;;;3.78;1.85;;;;;;;-1.28;51.13;94056.03;2047949;70;20151;-75
2022/02/12 00:53:28;;;;;;;2.60;1.67;;;;;;;-1.24;50.30;94048.22;2048158;70;20253;-72
2022/02/12 00:55:55;;;;;;;4.65;2.17;;;;;;;-1.22;51.09;94056.78;2048171;70;20142;-70
2022/02/12 00:58:20;;;;;;;10.02;3.58;;;;;;;-1.70;53.35;94049.41;2047668;70;20147;-72
2022/02/12 01:00:46;;;;;;;7.82;3.38;;;;;;;-1.55;52.56;94051.97;2047753;70;20192;-70
2022/02/12 01:03:12;;;;;;;12.38;4.45;;;;;;;-1.84;54.48;94051.13;2048367;70;20178;-69
2022/02/12 01:05:39;;;;;;;8.82;3.88;;;;;;;-1.90;55.33;94050.38;2048388;70;20230;-71
2022/02/12 01:08:05;;;;;;;8.10;3.90;;;;;;;-1.92;54.84;94047.38;2048376;70;20170;-71
2022/02/12 01:10:33;;;;;;;9.15;4.03;;;;;;;-1.90;54.54;94049.63;2048300;70;20606;-69
2022/02/12 01:13:00;;;;;;;9.27;4.60;;;;;;;-2.00;56.29;94051.84;2047838;70;20225;-68
2022/02/12 01:15:26;;;;;;;6.63;4.00;;;;;;;-2.03;56.32;94052.09;2048344;70;20533;-69
2022/02/12 01:17:51;;;;;;;7.57;3.22;;;;;;;-1.89;55.96;94045.59;2048488;70;20147;-68
2022/02/12 01:20:18;;;;;;;5.20;2.58;;;;;;;-1.78;55.21;94042.91;2048025;70;20238;-69
2022/02/12 01:22:46;;;;;;;3.72;1.92;;;;;;;-1.73;53.32;94042.16;2047877;70;20145;-71
2022/02/12 01:25:12;;;;;;;10.15;3.03;;;;;;;-1.76;53.94;94045.16;2048369;70;20180;-71
2022/02/12 01:27:39;;;;;;;3.05;1.67;;;;;;;-1.71;52.94;94047.91;2048313;70;20241;-71
2022/02/12 01:30:08;;;;;;;3.85;2.80;;;;;;;-2.37;54.80;94038.91;2048424;70;20181;-72
2022/02/12 01:32:37;;;;;;;8.98;3.70;;;;;;;-2.09;55.91;94047.31;2048527;70;20185;-71
2022/02/12 01:35:07;;;;;;;14.55;3.47;;;;;;;-2.38;56.00;94039.41;2048620;70;20169;-71
2022/02/12 01:37:35;;;;;;;9.75;4.80;;;;;;;-2.81;58.66;94039.41;2048581;70;20181;-71
2022/02/12 01:40:02;;;;;;;10.07;5.07;;;;;;;-2.41;57.44;94037.63;2048235;70;20220;-73
2022/02/12 01:42:34;;;;;;;7.40;4.28;;;;;;;-2.27;56.39;94039.47;2048525;70;20620;-70
2022/02/12 01:45:03;;;;;;;9.60;4.15;;;;;;;-2.30;55.49;94040.44;2048571;70;20636;-71
2022/02/12 01:47:30;;;;;;;8.32;3.58;;;;;;;-2.24;55.53;94040.47;2048448;70;20154;-69
2022/02/12 01:49:57;;;;;;;5.78;3.22;;;;;;;-2.17;55.07;94037.22;2048555;70;20178;-70
2022/02/12 01:52:27;;;;;;;10.73;3.15;;;;;;;-2.02;55.64;94034.28;2048263;70;20141;-74
2022/02/12 01:54:52;;;;;;;6.32;2.60;;;;;;;-2.16;55.58;94033.22;2047926;70;20142;-70
2022/02/12 01:57:18;;;;;;;7.03;2.80;;;;;;;-2.13;55.94;94044.03;2048391;70;20163;-69
2022/02/12 01:59:44;;;;;;;4.28;2.50;;;;;;;-2.27;55.36;94033.19;2045951;70;20257;-72
2022/02/12 02:02:12;;;;;;;5.90;2.90;;;;;;;-2.33;56.41;94044.97;2051375;70;20230;-71
2022/02/12 02:04:42;;;;;;;6.10;3.05;;;;;;;-2.32;56.01;94024.38;2048431;70;20211;-74
2022/02/12 02:07:16;;;;;;;5.85;3.25;;;;;;;-2.31;55.84;94031.41;2051706;70;20181;-70
2022/02/12 02:09:44;;;;;;;8.05;3.88;;;;;;;-2.39;55.67;94026.84;2050900;70;20205;-70
2022/02/12 02:12:11;;;;;;;5.95;3.42;;;;;;;-2.49;55.50;94022.78;2051675;70;20165;-76
2022/02/12 02:14:41;;;;;;;4.75;2.95;;;;;;;-2.29;55.74;94028.16;2051520;70;20298;-77
2022/02/12 02:17:10;;;;;;;6.28;2.70;;;;;;;-2.23;54.72;94028.19;2048184;70;20237;-70
2022/02/12 02:19:37;;;;;;;5.13;2.67;;;;;;;-2.29;54.91;94014.38;2051700;70;20212;-73
2022/02/12 02:22:04;;;;;;;5.93;3.10;;;;;;;-2.54;55.97;94015.25;2051590;70;20177;-76
2022/02/12 02:24:31;;;;;;;9.95;2.88;;;;;;;-2.62;56.52;94026.00;2051791;70;20165;-69
2022/02/12 02:27:05;;;;;;;6.15;3.00;;;;;;;-2.70;55.92;94016.66;2051452;70;20150;-74
2022/02/12 02:29:31;;;;;;;5.88;3.30;;;;;;;-2.73;56.48;94021.16;2051562;70;20145;-74
2022/02/12 02:31:56;;;;;;;4.93;2.80;;;;;;;-2.70;56.39;94020.19;2051458;70;20576;-73
2022/02/12 02:34:22;;;;;;;5.80;2.72;;;;;;;-2.61;56.89;94022.00;2051742;70;20154;-79
2022/02/12 02:36:47;;;;;;;6.82;3.33;;;;;;;-3.02;58.10;94021.47;2051808;70;20671;-75
2022/02/12 02:39:13;;;;;;;6.28;3.00;;;;;;;-2.86;57.40;94021.59;2051792;70;20158;-79
2022/02/12 02:41:38;;;;;;;4.50;2.67;;;;;;;-2.70;57.02;94025.72;2051519;70;20134;-77
2022/02/12 02:44:04;;;;;;;5.60;2.60;;;;;;;-2.50;56.04;94018.53;2051556;70;20645;-77
2022/02/12 02:46:30;;;;;;;6.05;2.80;;;;;;;-2.84;57.99;94023.84;2051462;70;20146;-75
2022/02/12 02:48:55;;;;;;;7.07;2.97;;;;;;;-2.98;58.29;94020.00;2051705;70;20142;-77
2022/02/12 02:56:50;;;;;;;3.83;2.60;;;;;;;-2.67;56.74;94026.72;2051709;70;20818;-76
2022/02/12 02:59:15;;;;;;;6.30;3.30;;;;;;;-3.16;58.46;94023.91;2051540;70;20160;-74
2022/02/12 03:01:41;;;;;;;4.72;2.80;;;;;;;-2.95;57.50;94026.53;2051364;70;20174;-76
2022/02/12 03:04:07;;;;;;;4.93;2.83;;;;;;;-2.93;57.26;94027.56;2051545;70;20154;-70
2022/02/12 03:06:32;;;;;;;6.65;3.30;;;;;;;-2.97;57.09;94020.78;2051528;70;20189;-69
2022/02/12 03:08:59;;;;;;;9.40;3.00;;;;;;;-2.86;56.84;94029.84;2051380;70;20281;-69
2022/02/12 03:11:25;;;;;;;5.22;2.80;;;;;;;-2.89;57.49;94025.31;2051734;70;20146;-76
2022/02/12 03:13:53;;;;;;;5.18;3.03;;;;;;;-2.85;57.16;94019.59;2051660;70;20184;-76
2022/02/12 03:16:19;;;;;;;6.97;3.50;;;;;;;-2.86;57.01;94021.59;2051519;70;20178;-71
2022/02/12 03:18:47;;;;;;;6.18;3.10;;;;;;;-2.94;58.09;94023.28;2051666;70;20605;-73
2022/02/12 03:21:13;;;;;;;9.50;2.90;;;;;;;-2.78;57.28;94015.63;2051325;70;20161;-73
2022/02/12 03:23:40;;;;;;;6.60;3.50;;;;;;;-2.83;57.09;94017.88;2048635;70;20130;-71
2022/02/12 03:26:07;;;;;;;6.47;3.10;;;;;;;-2.85;57.38;94023.09;2051717;70;20250;-78
2022/02/12 03:28:33;;;;;;;6.63;3.70;;;;;;;-3.08;58.15;94024.94;2048155;70;20178;-72
2022/02/12 03:30:59;;;;;;;10.73;4.38;;;;;;;-3.10;58.41;94021.19;2051676;70;20514;-74
2022/02/12 03:33:25;;;;;;;7.10;3.83;;;;;;;-3.04;57.53;94015.72;2051768;70;20145;-76
2022/02/12 03:35:53;;;;;;;9.63;3.38;;;;;;;-3.15;58.09;94013.63;2051664;70;20257;-78
2022/02/12 03:38:26;;;;;;;5.25;3.55;;;;;;;-3.03;57.58;94017.22;2051445;70;20126;-79
2022/02/12 03:41:00;;;;;;;9.43;3.78;;;;;;;-3.10;57.55;94019.19;2052046;70;20138;-72
2022/02/12 03:43:31;;;;;;;6.40;3.70;;;;;;;-3.19;57.81;94024.13;2053932;70;20139;-78
2022/02/12 03:45:58;;;;;;;7.90;3.53;;;;;;;-3.15;57.81;94024.66;2051671;70;20152;-75
2022/02/12 03:48:25;;;;;;;7.25;3.03;;;;;;;-3.13;57.98;94016.66;2051573;70;20217;-72
2022/02/12 03:50:54;;;;;;;6.53;2.92;;;;;;;-3.10;58.15;94027.44;2051721;70;20198;-74
2022/02/12 03:53:20;;;;;;;5.78;2.83;;;;;;;-3.06;57.35;94027.22;2048718;70;20143;-71
2022/02/12 03:55:47;;;;;;;8.48;4.28;;;;;;;-3.03;56.99;94022.72;2046379;70;20154;-70
2022/02/12 03:58:16;;;;;;;9.98;4.28;;;;;;;-2.92;56.45;94017.31;2048416;70;20186;-74
2022/02/12 04:00:44;;;;;;;7.15;2.72;;;;;;;-2.75;55.99;94031.16;2048113;70;20148;-72
2022/02/12 04:03:11;;;;;;;5.18;2.10;;;;;;;-2.91;52.15;94027.06;2048503;70;20161;-79
2022/02/12 04:05:37;;;;;;;1.77;1.10;;;;;;;-2.89;50.52;94017.06;2048350;70;20260;-74
2022/02/12 04:08:04;;;;;;;2.55;1.13;;;;;;;-2.67;51.90;94023.94;2048438;70;20638;-81
2022/02/12 04:10:30;;;;;;;3.28;1.20;;;;;;;-2.77;51.81;94019.91;2048381;70;20138;-75
2022/02/12 04:12:59;;;;;;;1.83;1.10;;;;;;;-2.69;51.45;94010.69;2048606;70;20641;-75
2022/02/12 04:15:25;;;;;;;2.63;0.90;;;;;;;-2.60;48.09;94018.00;2047856;70;20682;-79
2022/02/12 04:17:51;;;;;;;2.35;0.88;;;;;;;-2.64;47.59;94006.44;2048345;70;20510;-70
2022/02/12 04:20:19;;;;;;;1.33;1.00;;;;;;;-2.56;46.83;94007.50;2048400;70;20147;-70
2022/02/12 04:22:45;;;;;;;1.13;0.85;;;;;;;-2.46;48.45;94003.28;2048313;70;20226;-70
2022/02/12 04:25:13;;;;;;;1.67;0.90;;;;;;;-2.45;47.58;93998.50;2048269;70;20538;-71
2022/02/12 04:27:39;;;;;;;2.03;1.15;;;;;;;-2.44;47.35;93997.25;2048316;70;20150;-70
2022/02/12 04:30:06;;;;;;;1.95;1.38;;;;;;;-2.50;45.94;94002.00;2045039;70;20154;-75
2022/02/12 04:32:32;;;;;;;6.20;1.33;;;;;;;-2.43;46.24;94005.03;2048242;70;20151;-70
2022/02/12 04:34:59;;;;;;;7.85;1.50;;;;;;;-2.54;44.63;94004.22;2048284;70;20181;-70
2022/02/12 04:37:26;;;;;;;9.63;1.80;;;;;;;-2.42;45.80;94005.78;2050394;70;20142;-71
2022/02/12 04:39:52;;;;;;;3.95;1.30;;;;;;;-2.57;46.38;94005.97;2048256;70;20142;-73
2022/02/12 04:42:18;;;;;;;6.88;1.30;;;;;;;-2.52;47.02;94010.00;2048300;70;20146;-74
2022/02/12 04:44:46;;;;;;;5.07;1.90;;;;;;;-2.61;46.64;94005.47;2048304;70;20141;-80
2022/02/12 04:47:12;;;;;;;12.63;2.72;;;;;;;-2.48;46.58;94000.22;2048204;70;20158;-75
2022/02/12 04:49:38;;;;;;;8.35;2.40;;;;;;;-2.44;47.38;93995.25;2048252;70;20162;-72
2022/02/12 04:52:05;;;;;;;3.33;2.40;;;;;;;-2.61;47.41;94006.22;2045013;70;20549;-74
2022/02/12 04:54:32;;;;;;;7.70;1.75;;;;;;;-2.72;46.68;94000.63;2048283;70;20305;-76
2022/02/12 04:56:59;;;;;;;1.85;1.40;;;;;;;-2.68;45.67;94003.16;2048178;70;20216;-75
2022/02/12 04:59:25;;;;;;;1.73;1.00;;;;;;;-2.89;46.24;93995.00;2048345;70;20212;-69
2022/02/12 05:01:51;;;;;;;1.63;1.23;;;;;;;-2.56;46.43;93993.69;2045110;70;20146;-68
2022/02/12 05:04:18;;;;;;;1.42;0.98;;;;;;;-2.54;45.66;93993.94;2048557;70;20149;-69
2022/02/12 05:06:44;;;;;;;4.57;1.23;;;;;;;-2.57;46.23;93987.44;2049071;70;20146;-72
2022/02/12 05:09:13;;;;;;;3.15;1.83;;;;;;;-2.53;45.29;93987.19;2048581;70;20146;-70
2022/02/12 05:11:47;;;;;;;2.70;1.20;;;;;;;-2.52;45.38;93987.94;2048551;70;20138;-74
2022/02/12 05:14:15;;;;;;;4.35;1.08;;;;;;;-2.63;44.69;93975.59;2048504;70;20236;-76
2022/02/12 05:16:41;;;;;;;1.52;1.00;;;;;;;-2.62;46.03;93988.13;2048338;70;20570;-74
2022/02/12 05:19:07;;;;;;;1.00;0.80;;;;;;;-2.64;45.93;93989.91;2048465;70;20155;-74
2022/02/12 05:21:32;;;;;;;7.55;1.40;;;;;;;-2.64;45.30;93989.91;2045217;70;20641;-71
2022/02/12 05:23:59;;;;;;;4.75;1.70;;;;;;;-2.62;45.78;93987.38;2048594;70;20163;-74
2022/02/12 05:26:29;;;;;;;2.38;1.20;;;;;;;-2.61;46.57;93986.16;2048535;70;20161;-74
2022/02/12 05:28:56;;;;;;;3.92;1.70;;;;;;;-2.62;46.34;93987.38;2048333;70;20138;-69
2022/02/12 05:31:22;;;;;;;2.60;1.30;;;;;;;-2.62;46.94;93979.88;2048322;70;20159;-69
2022/02/12 05:33:47;;;;;;;1.50;0.90;;;;;;;-2.64;45.93;93987.88;2048367;70;20236;-76
2022/02/12 05:36:14;;;;;;;2.70;1.10;;;;;;;-2.79;46.54;93981.03;2048541;70;20231;-71
2022/02/12 05:38:41;;;;;;;3.67;1.23;;;;;;;-2.88;44.17;93977.25;2048410;70;20158;-70
2022/02/12 05:41:07;;;;;;;2.55;1.30;;;;;;;-2.84;45.60;93974.22;2048594;70;20153;-69
2022/02/12 05:43:33;;;;;;;1.25;0.98;;;;;;;-2.90;45.02;93971.44;2048451;70;20154;-70
2022/02/12 05:45:59;;;;;;;3.28;1.20;;;;;;;-2.70;45.07;93969.78;2048279;70;20557;-71
2022/02/12 05:48:25;;;;;;;1.80;1.17;;;;;;;-2.68;44.61;93972.81;2048379;70;20134;-71
2022/02/12 05:50:51;;;;;;;1.15;1.00;;;;;;;-2.63;44.15;93970.09;2048474;70;20230;-74
2022/02/12 05:53:17;;;;;;;1.65;1.10;;;;;;;-2.68;43.95;93972.81;2048401;70;20583;-72
2022/02/12 05:55:43;;;;;;;3.92;1.20;;;;;;;-2.73;45.81;93973.56;2048496;70;20158;-77
2022/02/12 05:58:08;;;;;;;3.10;1.10;;;;;;;-2.81;44.89;93973.25;2048347;70;20150;-78
2022/02/12 06:00:34;;;;;;;2.28;1.30;;;;;;;-2.71;44.44;93968.28;2048264;70;20155;-70
2022/02/12 06:03:02;;;;;;;4.28;1.60;;;;;;;-2.75;45.51;93973.28;2048440;70;20147;-78
2022/02/12 06:05:27;;;;;;;1.67;1.30;;;;;;;-2.79;45.14;93972.75;2048448;70;20226;-75
2022/02/12 06:07:53;;;;;;;3.13;1.55;;;;;;;-2.87;46.40;93980.75;2048506;70;20226;-70
2022/02/12 06:10:21;;;;;;;2.42;1.10;;;;;;;-2.84;44.81;93983.28;2048891;70;20150;-69
2022/02/12 06:12:47;;;;;;;2.22;1.00;;;;;;;-2.95;45.11;93985.97;2048857;70;20146;-69
2022/02/12 06:15:12;;;;;;;2.40;1.23;;;;;;;-2.75;46.15;93978.78;2048881;70;20506;-71
2022/02/12 06:17:38;;;;;;;1.85;1.02;;;;;;;-2.83;45.11;93984.78;2048689;70;20158;-72
2022/02/12 06:20:04;;;;;;;1.17;0.98;;;;;;;-2.78;44.80;93985.31;2048792;70;20202;-77
2022/02/12 06:22:30;;;;;;;2.15;1.23;;;;;;;-2.77;45.91;93982.06;2048774;70;20272;-79
2022/02/12 06:24:56;;;;;;;2.80;0.98;;;;;;;-2.87;44.89;93986.25;2048811;70;20147;-71
2022/02/12 06:27:22;;;;;;;1.50;1.10;;;;;;;-2.92;44.79;93981.47;2048783;70;20162;-72
2022/02/12 06:29:47;;;;;;;2.50;1.20;;;;;;;-3.04;45.50;93980.63;2048885;70;20143;-77
2022/02/12 06:32:13;;;;;;;3.25;1.10;;;;;;;-2.92;44.39;93979.47;2050867;70;20182;-71
2022/02/12 06:34:39;;;;;;;3.97;1.33;;;;;;;-2.92;45.31;93981.47;2045706;70;20509;-71
2022/02/12 06:37:06;;;;;;;3.50;1.30;;;;;;;-2.90;44.74;93984.47;2049042;70;20215;-76
2022/02/12 06:39:32;;;;;;;3.17;1.25;;;;;;;-2.90;44.50;93982.47;2048716;70;20158;-71
2022/02/12 06:41:58;;;;;;;1.75;1.10;;;;;;;-2.94;44.80;93981.94;2048855;70;20159;-74
2022/02/12 06:44:24;;;;;;;2.83;1.40;;;;;;;-2.96;44.99;93986.47;2048772;70;20181;-71
2022/02/12 06:46:50;;;;;;;6.80;3.17;;;;;;;-3.04;44.98;93983.41;2045391;70;20154;-71
2022/02/12 06:49:16;;;;;;;4.53;2.20;;;;;;;-3.14;45.72;93999.38;2051061;70;20160;-75
2022/02/12 06:51:42;;;;;;;5.30;1.75;;;;;;;-3.18;45.56;93995.31;2048987;70;20157;-76
2022/02/12 06:54:07;;;;;;;3.78;1.90;;;;;;;-3.20;44.63;93993.06;2048715;70;20127;-74
2022/02/12 06:56:33;;;;;;;3.50;1.90;;;;;;;-2.92;44.52;93987.75;2048767;70;20146;-75
2022/02/12 06:58:59;;;;;;;2.60;1.50;;;;;;;-3.04;45.09;93991.66;2048734;70;20585;-73
2022/02/12 07:01:26;;;;;;;4.35;1.98;;;;;;;-3.14;44.37;93990.34;2048677;70;20154;-73
2022/02/12 07:03:56;;;;;;;5.53;1.90;;;;;;;-3.23;44.03;93987.78;2048683;70;20234;-75
2022/02/12 07:06:21;;;;;;;5.10;2.72;;;;;;;-3.07;44.76;93990.66;2048819;70;20613;-70
2022/02/12 07:08:47;;;;;;;4.93;2.20;;;;;;;-3.07;44.03;93979.63;2048672;70;20139;-74
2022/02/12 07:11:13;;;;;;;9.25;2.30;;;;;;;-2.98;44.83;93978.66;2048667;70;20586;-73
2022/02/12 07:13:38;;;;;;;4.82;2.42;;;;;;;-3.21;43.85;93977.03;2048642;70;20170;-75
2022/02/12 07:16:04;;;;;;;2.00;1.55;;;;;;;-3.18;44.08;93982.31;2048641;70;20213;-71
2022/02/12 07:18:30;;;;;;;3.10;2.00;;;;;;;-3.18;44.79;93987.06;2048487;70;20175;-75
2022/02/12 07:20:56;;;;;;;6.35;2.10;;;;;;;-3.09;45.13;93975.84;2048703;70;20206;-73
2022/02/12 07:23:22;;;;;;;4.20;1.98;;;;;;;-3.07;44.59;93982.41;2048697;70;20189;-71
2022/02/12 07:25:48;;;;;;;5.82;2.25;;;;;;;-3.07;43.75;93976.88;2050852;70;20167;-71
2022/02/12 07:28:14;;;;;;;4.80;1.90;;;;;;;-3.08;44.89;93978.09;2048594;70;20149;-72
2022/02/12 07:30:41;;;;;;;6.82;1.95;;;;;;;-2.99;43.90;93982.69;2048529;70;20151;-71
2022/02/12 07:33:07;;;;;;;7.43;2.42;;;;;;;-3.09;43.71;93992.38;2048745;70;20150;-72
2022/02/12 07:35:33;;;;;;;6.15;2.97;;;;;;;-3.12;44.09;93983.09;2048579;70;20594;-70
2022/02/12 07:37:59;;;;;;;5.43;2.60;;;;;;;-3.05;44.27;93984.66;2048611;70;20259;-70
2022/02/12 07:40:26;;;;;;;5.55;2.15;;;;;;;-3.18;43.17;93998.09;2042625;70;20165;-74
2022/02/12 07:42:52;;;;;;;4.57;2.35;;;;;;;-3.19;44.19;93999.34;2048680;70;20245;-70
2022/02/12 07:45:18;;;;;;;7.75;2.55;;;;;;;-3.29;43.70;94001.53;2048655;70;20345;-69
2022/02/12 07:47:44;;;;;;;5.68;2.45;;;;;;;-3.08;44.11;93991.88;2048477;70;20592;-70
2022/02/12 07:50:12;;;;;;;6.45;2.50;;;;;;;-3.03;43.84;93993.16;2048776;70;20154;-70
2022/02/12 07:52:41;;;;;;;4.75;2.47;;;;;;;-2.86;43.60;93987.75;2048629;70;20178;-69
2022/02/12 07:55:07;;;;;;;4.43;2.45;;;;;;;-2.97;44.09;93985.72;2048742;70;20617;-75
2022/02/12 07:57:33;;;;;;;8.27;3.90;;;;;;;-3.08;44.21;93985.63;2048647;70;20623;-72
2022/02/12 07:59:59;;;;;;;10.07;3.05;;;;;;;-3.08;42.99;93988.38;2048694;70;20206;-70
2022/02/12 08:02:24;;;;;;;12.73;3.13;;;;;;;-3.34;43.42;93989.22;2045321;70;20221;-71
2022/02/12 08:04:50;;;;;;;9.25;3.20;;;;;;;-3.03;44.58;93981.41;2048841;70;20201;-80
2022/02/12 08:07:28;;;;;;;14.10;3.40;;;;;;;-3.07;43.16;93987.91;2049005;70;20155;-74
2022/02/12 08:11:22;;;;;;;8.95;3.33;;;;;;;-3.09;43.37;93984.88;2048583;70;20166;-71
2022/02/12 08:12:51;;;;;;;9.63;3.45;;;;;;;-3.01;43.43;93982.44;2048691;70;20143;-73
2022/02/12 08:15:17;;;;;;;16.40;5.25;;;;;;;-3.03;43.27;93981.41;2048631;70;20614;-72
2022/02/12 08:17:42;;;;;;;6.47;2.88;;;;;;;-3.18;44.04;93978.81;2048369;70;20216;-71
2022/02/12 08:20:09;;;;;;;7.70;3.17;;;;;;;-3.04;44.10;93977.88;2048495;70;20158;-75
2022/02/12 08:22:35;;;;;;;11.57;3.90;;;;;;;-3.09;45.79;93973.09;2048657;70;20224;-73
2022/02/12 08:25:01;;;;;;;7.60;3.28;;;;;;;-2.93;44.73;93971.69;2048467;70;20142;-73
2022/02/12 08:27:28;;;;;;;10.32;3.35;;;;;;;-2.95;44.43;93968.69;2048523;70;20258;-71
2022/02/12 08:29:54;;;;;;;5.20;2.70;;;;;;;-2.86;44.95;93969.22;2048540;70;20251;-73
2022/02/12 08:32:21;;;;;;;6.80;2.90;;;;;;;-2.91;44.27;93967.19;2048374;70;20154;-73
2022/02/12 08:34:48;;;;;;;5.68;2.55;;;;;;;-2.88;44.49;93965.47;2048506;70;20142;-71
2022/02/12 08:37:14;;;;;;;9.30;2.80;;;;;;;-2.74;45.44;93958.28;2048546;70;20170;-72
2022/02/12 08:39:40;;;;;;;8.52;3.13;;;;;;;-2.21;46.13;93957.44;2048458;70;20627;-76
2022/02/12 08:42:06;;;;;;;6.63;2.80;;;;;;;-1.74;45.87;93959.78;2048454;70;20146;-71
2022/02/12 08:44:32;;;;;;;8.30;3.15;;;;;;;-1.36;44.53;93950.03;2048480;70;20163;-73
2022/02/12 08:46:58;;;;;;;7.53;3.30;;;;;;;-1.10;44.56;93950.53;2048299;70;20687;-71
2022/02/12 08:49:23;;;;;;;5.97;3.05;;;;;;;-0.56;43.51;93941.81;2048505;70;20179;-75
2022/02/12 08:51:50;;;;;;;5.80;3.35;;;;;;;-0.24;42.42;93932.38;2048358;70;20142;-72
2022/02/12 08:54:16;;;;;;;8.05;2.58;;;;;;;-0.14;39.98;93939.88;2047853;70;20154;-75
2022/02/12 08:56:43;;;;;;;7.30;3.30;;;;;;;0.00;40.94;93943.59;2048381;70;20147;-78
2022/02/12 08:59:09;;;;;;;10.50;3.88;;;;;;;-0.01;38.78;93940.06;2048324;70;20174;-73
2022/02/12 09:01:37;;;;;;;12.80;4.28;;;;;;;0.29;38.71;93936.63;2048333;70;20534;-74
2022/02/12 09:04:05;;;;;;;14.10;5.13;;;;;;;0.40;39.21;93936.53;2048413;70;20582;-77
2022/02/12 09:06:32;;;;;;;8.20;3.50;;;;;;;0.89;39.77;93924.78;2048369;70;20138;-71
2022/02/12 09:08:58;;;;;;;12.93;4.07;;;;;;;1.30;39.03;93919.09;2048373;70;20598;-71
2022/02/12 09:11:27;;;;;;;15.65;4.63;;;;;;;1.89;41.53;93930.50;2048448;70;20151;-71
2022/02/12 09:13:54;;;;;;;13.07;4.00;;;;;;;2.19;39.92;93925.53;2048293;70;20173;-71
2022/02/12 09:16:24;;;;;;;13.30;4.47;;;;;;;2.39;38.51;93915.16;2044942;70;20142;-78
2022/02/12 09:18:54;;;;;;;12.07;4.38;;;;;;;2.83;37.95;93927.59;2048394;70;20153;-71
2022/02/12 09:21:21;;;;;;;14.93;4.63;;;;;;;2.87;37.59;93913.38;2048487;70;20139;-71
2022/02/12 09:23:47;;;;;;;20.52;7.47;;;;;;;2.10;36.62;93912.03;2048384;70;20138;-70
2022/02/12 09:26:13;;;;;;;21.00;7.07;;;;;;;2.33;37.02;93914.50;2048339;70;20146;-75
2022/02/12 09:28:39;;;;;;;26.45;9.52;;;;;;;2.51;36.43;93919.25;2048334;70;20554;-74
2022/02/12 09:31:05;;;;;;;24.42;8.77;;;;;;;3.10;35.62;93914.50;2048203;70;20154;-72
2022/02/12 09:33:30;;;;;;;4.13;2.42;;;;;;;3.20;33.69;93912.03;2048581;70;20158;-72
2022/02/12 09:35:56;;;;;;;5.82;2.13;;;;;;;3.23;33.58;93902.63;2048417;70;20657;-72
2022/02/12 09:38:23;;;;;;;7.97;2.55;;;;;;;4.19;35.17;93907.78;2048409;70;20146;-73
2022/02/12 09:40:50;;;;;;;4.65;2.20;;;;;;;4.41;32.68;93900.97;2045154;70;20167;-72
2022/02/12 09:43:19;;;;;;;4.97;3.10;;;;;;;4.42;32.97;93893.34;2048740;70;20182;-73
2022/02/12 09:45:57;;;;;;;5.45;1.95;;;;;;;4.55;32.26;93891.25;2048632;70;20142;-73
2022/02/12 09:48:23;;;;;;;5.38;1.90;;;;;;;5.29;30.83;93888.16;2048851;70;20209;-73
2022/02/12 09:50:51;;;;;;;6.07;1.60;;;;;;;5.78;32.68;93884.53;2048823;70;20166;-74
2022/02/12 09:53:17;;;;;;;2.63;1.38;;;;;;;5.73;31.51;93888.25;2048873;70;20522;-74
2022/02/12 09:55:43;;;;;;;6.30;1.70;;;;;;;5.76;31.92;93884.31;2048773;70;20146;-71
2022/02/12 09:58:13;;;;;;;3.38;1.58;;;;;;;5.63;29.93;93884.44;2048731;70;20173;-72
2022/02/12 10:00:39;;;;;;;4.53;1.48;;;;;;;6.76;31.93;93881.88;2048779;70;20159;-72
2022/02/12 10:03:04;;;;;;;4.45;1.50;;;;;;;7.14;31.85;93876.31;2048779;70;20154;-71
2022/02/12 10:05:31;;;;;;;1.75;1.10;;;;;;;7.26;29.07;93873.88;2048817;70;20208;-74
2022/02/12 10:08:00;;;;;;;1.45;1.00;;;;;;;6.41;28.22;93867.44;2048734;70;20143;-77
2022/02/12 10:10:27;;;;;;;2.78;1.10;;;;;;;6.07;29.32;93857.28;2048824;70;20194;-70
2022/02/12 10:13:15;;;;;;;2.53;1.38;;;;;;;7.38;30.45;93864.53;2048755;70;20229;-72
2022/02/12 10:15:43;;;;;;;2.08;1.30;;;;;;;7.08;28.83;93856.16;2049023;70;20599;-70
2022/02/12 10:18:10;;;;;;;6.13;1.35;;;;;;;8.04;27.94;93850.72;2048841;70;20159;-68
2022/02/12 10:20:37;;;;;;;3.15;1.27;;;;;;;7.74;28.40;93852.31;2048803;70;20674;-72
2022/02/12 10:23:13;;;;;;;2.15;1.52;;;;;;;7.03;27.01;93852.22;2048805;70;20601;-70
2022/02/12 10:25:41;;;;;;;3.15;1.67;;;;;;;7.41;29.18;93836.69;2048785;70;20169;-72
2022/02/12 10:28:09;;;;;;;2.63;1.48;;;;;;;7.04;27.63;93845.31;2045454;70;20143;-72
2022/02/12 10:30:35;;;;;;;2.70;1.50;;;;;;;7.53;26.44;93835.75;2048632;70;20142;-74
2022/02/12 10:33:04;;;;;;;1.98;1.20;;;;;;;7.80;26.55;93830.44;2045356;70;20230;-76
2022/02/12 10:35:30;;;;;;;5.20;1.40;;;;;;;7.84;26.83;93830.06;2048960;70;20149;-78
2022/02/12 10:38:08;;;;;;;4.20;1.67;;;;;;;8.58;27.14;93818.28;2045420;70;20530;-81
2022/02/12 10:40:35;;;;;;;2.40;1.52;;;;;;;9.53;26.48;93812.81;2048931;70;20131;-76
2022/02/12 10:43:01;;;;;;;4.82;2.65;;;;;;;8.48;27.24;93806.19;2050909;70;20570;-73
2022/02/12 10:45:29;;;;;;;4.38;1.95;;;;;;;9.82;25.38;93805.38;2048750;70;20577;-71
2022/02/12 10:47:57;;;;;;;4.88;2.17;;;;;;;9.25;26.22;93797.91;2048674;70;20178;-72
2022/02/12 10:50:28;;;;;;;3.50;1.50;;;;;;;9.47;25.53;93795.47;2048701;70;20157;-69
2022/02/12 10:53:00;;;;;;;5.97;3.20;;;;;;;10.15;25.38;93799.56;2048743;70;20222;-72
2022/02/12 10:55:31;;;;;;;11.93;6.07;;;;;;;10.74;25.46;93795.75;2048796;70;20169;-70
2022/02/12 10:58:05;;;;;;;10.55;4.85;;;;;;;11.70;25.14;93800.91;2048690;70;20229;-71
2022/02/12 11:00:33;;;;;;;10.13;4.70;;;;;;;11.70;24.91;93794.53;2048703;70;20158;-75
2022/02/12 11:03:01;;;;;;;4.72;2.47;;;;;;;12.31;24.12;93803.88;2048127;70;20537;-73
2022/02/12 11:05:28;;;;;;;2.55;1.50;;;;;;;11.11;23.95;93799.31;2048474;70;20162;-70
2022/02/12 11:07:54;;;;;;;6.60;1.30;;;;;;;11.96;25.14;93792.94;2049263;70;20297;-71
2022/02/12 11:10:20;;;;;;;3.03;1.38;;;;;;;12.92;22.42;93794.06;2050464;70;20143;-73
2022/02/12 11:12:48;;;;;;;2.35;1.10;;;;;;;14.07;21.81;93785.53;2051947;69;20153;-75
2022/02/12 11:15:14;;;;;;;1.67;1.40;;;;;;;14.98;21.76;93782.84;2051894;70;20200;-75
2022/02/12 11:17:42;;;;;;;3.00;1.30;;;;;;;16.33;20.17;93782.25;2051886;70;20157;-76
2022/02/12 11:20:09;;;;;;;2.78;0.98;;;;;;;17.53;18.51;93780.25;2051989;70;20287;-77
2022/02/12 11:22:36;;;;;;;1.88;0.70;;;;;;;17.74;17.89;93779.22;2051908;70;20143;-70
2022/02/12 11:25:02;;;;;;;1.25;0.60;;;;;;;18.00;17.99;93768.41;2051484;69;20181;-71
2022/02/12 11:27:29;;;;;;;2.90;1.55;;;;;;;17.44;15.61;93769.06;2051865;70;20606;-77
2022/02/12 11:29:56;;;;;;;3.92;2.00;;;;;;;17.64;15.51;93758.00;2051231;70;20157;-71
2022/02/12 11:32:26;;;;;;;4.88;3.22;;;;;;;21.24;16.09;93759.13;2050889;70;20154;-71
2022/02/12 11:34:55;;;;;;;4.65;2.70;;;;;;;22.20;15.44;93759.03;2050481;70;20174;-70
2022/02/12 11:37:21;;;;;;;4.07;2.05;;;;;;;20.86;14.96;93751.94;2050947;70;20176;-70
2022/02/12 11:40:17;;;;;;;3.20;2.00;;;;;;;22.46;15.15;93759.19;2051118;70;20164;-69